createdAt,value
2023-04-17T00:08:51.287Z,10.67
2023-04-17T00:13:56.177Z,11.02
2023-04-17T00:18:59.642Z,10.38
2023-04-17T00:24:03.264Z,11.35
2023-04-17T00:29:08.173Z,11.10
2023-04-17T00:39:15.019Z,9.80
2023-04-17T00:44:19.993Z,11.00
2023-04-17T00:49:23.832Z,11.23
2023-04-17T00:54:27.674Z,9.93
2023-04-17T00:59:33.860Z,10.07
2023-04-17T01:04:37.345Z,10.00
2023-04-17T01:09:40.840Z,10.90
2023-04-17T01:14:46.030Z,10.52
2023-04-17T01:19:50.247Z,10.40
2023-04-17T01:24:55.162Z,11.10
2023-04-17T01:29:58.634Z,10.18
2023-04-17T01:35:02.282Z,9.93
2023-04-17T01:40:10.317Z,11.02
2023-04-17T01:45:14.082Z,11.63
2023-04-17T01:50:18.034Z,10.32
2023-04-17T01:55:23.098Z,11.25
2023-04-17T02:00:26.788Z,11.63
2023-04-17T02:05:30.598Z,11.40
2023-04-17T02:10:35.590Z,10.98
2023-04-17T02:20:42.992Z,10.80
2023-04-17T02:25:47.870Z,11.77
2023-04-17T02:30:51.327Z,11.95
2023-04-17T02:35:54.844Z,10.48
2023-04-17T02:41:00.088Z,11.35
2023-04-17T02:46:03.849Z,11.18
2023-04-17T02:51:07.617Z,9.98
2023-04-17T02:56:12.865Z,11.57
2023-04-17T03:01:16.432Z,10.55
2023-04-17T03:06:20.205Z,10.82
2023-04-17T03:11:25.524Z,11.10
2023-04-17T03:16:29.109Z,11.80
2023-04-17T03:21:32.906Z,10.98
2023-04-17T03:26:37.828Z,11.52
2023-04-17T03:31:41.573Z,11.00
2023-04-17T03:36:45.270Z,11.00
2023-04-17T03:41:50.289Z,10.07
2023-04-17T03:46:53.940Z,10.32
2023-04-17T03:51:57.770Z,10.65
2023-04-17T03:57:03.262Z,11.18
2023-04-17T04:02:07.248Z,11.52
2023-04-17T04:07:11.139Z,10.33
2023-04-17T04:12:16.214Z,9.52
2023-04-17T04:22:22.997Z,10.57
2023-04-17T04:27:32.947Z,10.77
2023-04-17T04:32:37.741Z,9.50
2023-04-17T04:37:43.137Z,11.27
2023-04-17T04:42:49.732Z,11.43
2023-04-17T04:47:53.540Z,10.82
2023-04-17T04:52:57.117Z,11.70
2023-04-17T04:58:02.163Z,10.65
2023-04-17T05:03:06.756Z,11.30
2023-04-17T05:13:15.242Z,10.43
2023-04-17T05:23:23.338Z,11.43
2023-04-17T05:33:33.456Z,10.05
2023-04-17T05:38:37.021Z,9.80
2023-04-17T05:43:42.912Z,10.13
2023-04-17T05:48:46.400Z,10.18
2023-04-17T05:53:50.000Z,12.40
2023-04-17T05:58:54.978Z,10.93
2023-04-17T06:09:02.744Z,10.13
2023-04-17T06:14:07.760Z,10.27
2023-04-17T06:19:11.677Z,9.63
2023-04-17T06:24:15.506Z,9.10
2023-04-17T06:29:20.606Z,9.60
2023-04-17T06:34:24.249Z,10.18
2023-04-17T06:39:28.018Z,9.85
2023-04-17T06:44:32.894Z,10.70
2023-04-17T06:54:39.854Z,10.00
2023-04-17T06:59:44.916Z,10.18
2023-04-17T07:04:48.519Z,10.60
2023-04-17T07:09:52.294Z,9.68
2023-04-17T07:14:57.288Z,11.35
2023-04-17T07:20:01.252Z,10.20
2023-04-17T07:25:06.921Z,9.77
2023-04-17T07:30:12.830Z,9.93
2023-04-17T07:35:16.630Z,9.95
2023-04-17T07:40:20.425Z,10.20
2023-04-17T07:45:26.333Z,8.85
2023-04-17T07:50:30.217Z,7.32
2023-04-17T07:55:34.029Z,7.93
2023-04-17T08:00:39.154Z,9.40
2023-04-17T08:05:42.665Z,9.18
2023-04-17T08:10:46.732Z,8.88
2023-04-17T08:15:52.313Z,11.60
2023-04-17T08:20:55.926Z,10.88
2023-04-17T08:25:59.877Z,11.75
2023-04-17T08:31:05.301Z,12.83
2023-04-17T08:36:10.700Z,12.65
2023-04-17T08:41:19.831Z,13.02
2023-04-17T08:46:25.967Z,12.23
2023-04-17T08:51:29.574Z,12.30
2023-04-17T08:56:33.071Z,12.25
2023-04-17T09:01:38.181Z,10.52
2023-04-17T09:06:52.845Z,10.98
2023-04-17T09:12:12.284Z,11.50
2023-04-17T09:17:19.820Z,10.40
2023-04-17T09:22:24.689Z,8.80
2023-04-17T09:27:29.902Z,8.40
2023-04-17T09:32:35.910Z,6.95
2023-04-17T09:37:51.072Z,8.45
2023-04-17T09:42:57.220Z,7.63
2023-04-17T09:48:03.001Z,6.03
2023-04-17T09:53:08.370Z,6.93
2023-04-17T09:58:12.586Z,6.55
2023-04-17T10:03:18.625Z,6.75
2023-04-17T10:08:23.404Z,6.13
2023-04-17T10:13:29.973Z,7.03
2023-04-17T10:18:35.126Z,6.95
2023-04-17T10:23:40.155Z,7.55
2023-04-17T10:28:50.657Z,6.75
2023-04-17T10:33:55.893Z,6.40
2023-04-17T10:39:14.594Z,6.38
2023-04-17T10:44:19.652Z,6.13
2023-04-17T10:49:24.795Z,5.90
2023-04-17T10:54:28.470Z,5.57
2023-04-17T10:59:32.985Z,5.53
2023-04-17T11:09:41.660Z,5.22
2023-04-17T11:14:45.247Z,4.35
2023-04-17T11:19:53.431Z,3.73
2023-04-17T11:24:56.917Z,4.70
2023-04-17T11:30:00.588Z,4.63
2023-04-17T11:35:06.451Z,4.70
2023-04-17T11:40:11.703Z,5.18
2023-04-17T11:45:15.830Z,4.50
2023-04-17T11:50:21.117Z,4.23
2023-04-17T11:55:30.449Z,4.50
2023-04-17T12:00:34.911Z,4.82
2023-04-17T12:05:39.981Z,4.65
2023-04-17T12:10:45.814Z,4.75
2023-04-17T12:15:49.476Z,5.35
2023-04-17T12:20:55.085Z,4.93
2023-04-17T12:25:58.950Z,4.82
2023-04-17T12:31:02.801Z,5.05
2023-04-17T12:36:09.202Z,5.40
2023-04-17T12:41:13.251Z,5.28
2023-04-17T12:46:17.762Z,5.80
2023-04-17T12:56:26.946Z,5.63
2023-04-17T13:01:30.803Z,5.97
2023-04-17T13:06:35.826Z,5.63
2023-04-17T13:11:39.547Z,5.75
2023-04-17T13:16:43.074Z,6.05
2023-04-17T13:21:48.233Z,6.17
2023-04-17T13:26:51.860Z,5.22
2023-04-17T13:31:55.394Z,5.83
2023-04-17T13:37:00.750Z,6.28
2023-04-17T13:42:04.290Z,5.85
2023-04-17T13:47:08.211Z,6.33
2023-04-17T13:52:13.173Z,6.03
2023-04-17T13:57:18.611Z,5.63
2023-04-17T14:02:22.373Z,5.85
2023-04-17T14:07:28.610Z,6.18
2023-04-17T14:12:32.632Z,5.55
2023-04-17T14:17:43.304Z,5.70
2023-04-17T14:22:48.488Z,6.25
2023-04-17T14:27:52.776Z,5.78
2023-04-17T14:32:56.630Z,5.45
2023-04-17T14:38:05.080Z,5.47
2023-04-17T14:43:08.738Z,5.35
2023-04-17T14:48:12.860Z,4.77
2023-04-17T14:53:19.467Z,5.00
2023-04-17T14:58:25.108Z,5.07
2023-04-17T15:03:28.935Z,5.37
2023-04-17T15:08:34.669Z,5.13
2023-04-17T15:13:39.666Z,5.10
2023-04-17T15:18:43.569Z,4.80
2023-04-17T15:23:48.631Z,5.97
2023-04-17T15:28:52.327Z,4.57
2023-04-17T15:33:56.045Z,5.17
2023-04-17T15:39:01.632Z,5.50
2023-04-17T15:44:06.106Z,5.50
2023-04-17T15:49:09.880Z,5.57
2023-04-17T15:54:15.137Z,6.00
2023-04-17T15:59:18.849Z,6.07
2023-04-17T16:04:22.861Z,5.57
2023-04-17T16:09:28.203Z,6.00
2023-04-17T16:14:31.875Z,6.10
2023-04-17T16:19:35.631Z,6.22
2023-04-17T16:24:40.892Z,5.80
2023-04-17T16:29:44.658Z,5.50
2023-04-17T16:34:48.803Z,6.20
2023-04-17T16:39:54.011Z,6.45
2023-04-17T16:44:57.566Z,6.15
2023-04-17T16:50:01.157Z,5.78
2023-04-17T16:55:06.841Z,6.35
2023-04-17T17:00:12.280Z,6.43
2023-04-17T17:05:16.203Z,6.25
2023-04-17T17:10:21.557Z,6.07
2023-04-17T17:15:25.321Z,6.20
2023-04-17T17:20:28.913Z,5.75
2023-04-17T17:25:33.987Z,6.22
2023-04-17T17:30:37.580Z,6.30
2023-04-17T17:35:41.239Z,6.75
2023-04-17T17:40:46.582Z,6.93
2023-04-17T17:45:50.664Z,7.32
2023-04-17T17:50:55.600Z,6.65
2023-04-17T17:56:00.681Z,6.50
2023-04-17T18:01:04.797Z,6.72
2023-04-17T18:06:08.671Z,6.00
2023-04-17T18:11:14.449Z,7.30
2023-04-17T18:16:18.248Z,7.10
2023-04-17T18:21:22.110Z,7.00
2023-04-17T18:26:27.021Z,7.13
2023-04-17T18:31:30.645Z,7.03
2023-04-17T18:36:34.143Z,8.05
2023-04-17T18:41:39.146Z,8.05
2023-04-17T18:46:42.723Z,7.93
2023-04-17T18:51:48.053Z,8.60
2023-04-17T18:56:52.995Z,8.73
2023-04-17T19:01:56.572Z,8.40
2023-04-17T19:07:02.177Z,7.68
2023-04-17T19:12:07.789Z,8.93
2023-04-17T19:17:11.493Z,9.07
2023-04-17T19:22:16.097Z,8.25
2023-04-17T19:27:23.402Z,7.75
2023-04-17T19:32:28.650Z,8.48
2023-04-17T19:37:33.463Z,8.32
2023-04-17T19:42:38.342Z,8.18
2023-04-17T19:52:45.565Z,7.80
2023-04-17T19:57:51.154Z,7.22
2023-04-17T20:02:54.761Z,7.97
2023-04-17T20:07:58.552Z,8.87
2023-04-17T20:13:04.017Z,8.02
2023-04-17T20:18:08.570Z,9.30
2023-04-17T20:23:12.548Z,9.05
2023-04-17T20:28:17.524Z,8.67
2023-04-17T20:33:21.250Z,7.90
2023-04-17T20:38:24.873Z,8.80
2023-04-17T20:43:29.762Z,8.85
2023-04-17T20:53:36.438Z,10.52
2023-04-17T20:58:41.501Z,8.13
2023-04-17T21:03:45.336Z,8.38
2023-04-17T21:08:48.989Z,7.70
2023-04-17T21:13:54.646Z,9.43
2023-04-17T21:18:58.204Z,8.13
2023-04-17T21:24:01.916Z,9.40
2023-04-17T21:29:07.016Z,8.45
2023-04-17T21:34:11.131Z,8.38
2023-04-17T21:39:14.810Z,9.00
2023-04-17T21:44:19.748Z,9.23
2023-04-17T21:54:28.086Z,8.18
2023-04-17T21:59:33.138Z,6.97
2023-04-17T22:04:36.752Z,9.18
2023-04-17T22:09:40.424Z,8.75
2023-04-17T22:14:45.413Z,7.97
2023-04-17T22:19:48.914Z,7.53
2023-04-17T22:24:52.968Z,8.38
2023-04-17T22:29:57.865Z,8.50
2023-04-17T22:40:05.505Z,8.70
2023-04-17T22:45:10.782Z,9.23
2023-04-17T22:50:14.466Z,9.15
2023-04-17T22:55:18.223Z,8.75
2023-04-17T23:00:24.122Z,8.43
2023-04-17T23:05:27.902Z,8.77
2023-04-17T23:10:32.725Z,8.57
2023-04-17T23:15:37.819Z,7.75
2023-04-17T23:20:41.366Z,7.65
2023-04-17T23:25:44.790Z,8.07
2023-04-17T23:30:49.759Z,9.20
2023-04-17T23:40:56.348Z,7.68
2023-04-17T23:46:01.293Z,8.52
2023-04-17T23:51:05.866Z,9.05
2023-04-17T23:56:09.470Z,8.90
